• Join FlightAware (Why Join?)
  • Login
  • US Flag 
04:02AM EDT


 

Airport Tracker/Info


-or-


 

Live Flight TrackerFlight Track Log ✈ AAL1554 ✈ 10-06-2013 ✈ KDFW - KBWI

Flight Track Log - Related Links

Times and Time Zones

All times are in EDT time to prevent confusion due to time zone crossing. See the AAL1554 flight status page for this flight to view local times or setup timezone preferences in your user account.

Time Position Orientation Groundspeed Altitude Reporting Facility
EDT Latitude Longitude Course Direction KTS MPH feet Rate Location/Type
08:35PM 32.8833 -97.0333 357° North 186 214 1,300  Level Dallas / Fort Worth TRACON
08:36PM 32.8500 -97.0333 180° South 183 211 2,100 1,800 Climbing Dallas / Fort Worth TRACON
08:37PM 32.8000 -97.0000 151° Southeast 237 273 3,900 1,860 Climbing Dallas / Fort Worth TRACON
08:38PM 32.8707 -96.8000 North  Level FlightAware Approximate
08:38PM 32.7667 -96.9333 121° Southeast 257 296 5,900  Level Dallas / Fort Worth TRACON
08:39PM 32.9959 -96.8000 North  Level FlightAware Approximate
08:39PM 32.7667 -96.8500 90° East 287 330 7,900  Level Dallas / Fort Worth TRACON
08:40PM 33.1210 -96.8039 357° North  Level FlightAware Approximate
08:40PM 32.8333 -96.8000 32° Northeast 304 350 10,200  Level Dallas / Fort Worth TRACON
08:41PM 33.2460 -96.8128 357° North  Level FlightAware Approximate
08:42PM 33.0161 -96.8858 339° North 309 356 15,100  Level Fort Worth Center
08:43PM 33.1078 -96.8753 North 320 368 16,200 1,260 Climbing Fort Worth Center
08:44PM 33.2142 -96.8572 North 370 426 17,700 1,500 Climbing Fort Worth Center
08:46PM 33.4228 -96.8286 North 391 450 20,800 1,560 Climbing Fort Worth Center
08:47PM 33.5394 -96.7806 19° North 391 450 22,400 1,320 Climbing Fort Worth Center
08:48PM 33.6436 -96.7722 North 406 467 23,500 1,140 Climbing Fort Worth Center
08:49PM 33.7753 -96.7614 North 418 481 24,700 1,200 Climbing Fort Worth Center
08:50PM 33.8858 -96.7481 North 432 497 25,900 1,200 Climbing Fort Worth Center
08:51PM 34.0044 -96.7119 14° North 444 511 27,200 1,140 Climbing Fort Worth Center
08:52PM 34.1167 -96.6333 30° Northeast 438 504 28,200 1,140 Climbing Fort Worth Center
08:53PM 34.2078 -96.5319 43° Northeast 420 483 29,500 1,080 Climbing Fort Worth Center
08:54PM 34.2947 -96.4281 45° Northeast 431 496 30,400 720 Climbing Fort Worth Center
08:55PM 34.3836 -96.3239 44° Northeast 436 502 31,000 300 Climbing Fort Worth Center
08:56PM 34.4725 -96.2244 43° Northeast 436 502 31,000  Level Fort Worth Center
08:57PM 34.5589 -96.1200 45° Northeast 436 502 31,000  Level Fort Worth Center
08:58PM 34.6497 -96.0203 42° Northeast 436 502 31,000  Level Fort Worth Center
08:59PM 34.7361 -95.9178 44° Northeast 436 502 31,000  Level Fort Worth Center
09:00PM 34.8247 -95.8150 44° Northeast 430 495 31,000  Level Fort Worth Center
09:01PM 34.9069 -95.7247 42° Northeast 438 504 31,000  Level Fort Worth Center
09:02PM 34.9950 -95.6217 44° Northeast 438 504 31,000  Level Fort Worth Center
09:03PM 35.0833 -95.5183 44° Northeast 438 504 31,000  Level Fort Worth Center
09:04PM 35.2069 -95.3733 44° Northeast 432 497 31,000  Level Memphis Center
09:05PM 35.2944 -95.2692 44° Northeast 437 503 31,000  Level Memphis Center
09:06PM 35.3797 -95.1675 44° Northeast 437 503 31,000  Level Memphis Center
09:07PM 35.4694 -95.0603 44° Northeast 432 497 31,000  Level Memphis Center
09:08PM 35.5589 -94.9558 44° Northeast 432 497 31,000  Level Memphis Center
09:09PM 35.6483 -94.8483 44° Northeast 437 503 31,000  Level Memphis Center
09:10PM 35.7356 -94.7406 45° Northeast 443 510 31,000  Level Memphis Center
09:11PM 35.8247 -94.6325 44° Northeast 448 516 31,000  Level Memphis Center
09:12PM 35.9139 -94.5269 44° Northeast 448 516 31,000  Level Memphis Center
09:13PM 36.0028 -94.4186 45° Northeast 448 516 31,000  Level Memphis Center
09:14PM 36.0917 -94.3125 44° Northeast 448 516 31,000  Level Memphis Center
09:15PM 36.1806 -94.2064 44° Northeast 448 516 31,000  Level Memphis Center
09:16PM 36.2675 -94.0944 46° Northeast 448 516 31,000  Level Memphis Center
09:18PM 36.4364 -93.8725 47° Northeast 447 514 31,000  Level Kansas City Center
09:19PM 36.5183 -93.7606 48° Northeast 447 514 31,000  Level Kansas City Center
09:20PM 36.6050 -93.6472 46° Northeast 448 516 31,000  Level Kansas City Center
09:21PM 36.6908 -93.5317 47° Northeast 450 518 31,000  Level Kansas City Center
09:22PM 36.7572 -93.4031 57° Northeast 452 520 31,000  Level Kansas City Center
09:23PM 36.8208 -93.2703 59° Northeast 449 517 31,000  Level Kansas City Center
09:24PM 36.8889 -93.1267 59° Northeast 452 520 31,000  Level Kansas City Center
09:25PM 36.9533 -92.9917 59° Northeast 453 521 31,000  Level Kansas City Center
09:26PM 37.0181 -92.8589 59° Northeast 450 518 31,000  Level Kansas City Center
09:27PM 37.0933 -92.6975 60° Northeast 449 517 31,000  Level Kansas City Center
09:28PM 37.1569 -92.5631 59° Northeast 449 517 31,000  Level Kansas City Center
09:29PM 37.2197 -92.4294 59° Northeast 447 514 31,000  Level Kansas City Center
09:30PM 37.2828 -92.2942 60° Northeast 450 518 31,000  Level Kansas City Center
09:31PM 37.3458 -92.1597 59° Northeast 450 518 31,000  Level Kansas City Center
09:32PM 37.4075 -92.0253 60° Northeast 447 514 31,000  Level Kansas City Center
09:33PM 37.4697 -91.8906 60° Northeast 447 514 31,000  Level Kansas City Center
09:34PM 37.5447 -91.7286 61° Northeast 448 516 31,000  Level Kansas City Center
09:35PM 37.5294 -91.7529 61° Northeast  Level FlightAware Approximate
09:35PM 37.6075 -91.5942 59° Northeast 447 514 31,000  Level Kansas City Center
09:37PM 37.6567 -91.4492 67° East 451 519 31,000  Level Kansas City Center
09:38PM 37.6969 -91.2950 72° East 459 528 31,000  Level Kansas City Center
09:39PM 37.7392 -91.1425 71° East 461 531 31,000  Level Kansas City Center
09:40PM 37.7839 -90.9789 71° East 462 532 31,000  Level Kansas City Center
09:41PM 37.8258 -90.8269 71° East 460 529 31,000  Level Kansas City Center
09:42PM 37.8669 -90.6736 71° East 461 531 31,000  Level Kansas City Center
09:43PM 37.9078 -90.5208 71° East 462 532 31,000  Level Kansas City Center
09:44PM 37.9494 -90.3667 71° East 464 534 31,000  Level Kansas City Center
09:45PM 37.9892 -90.2114 72° East 466 536 31,000  Level Kansas City Center
09:46PM 38.0372 -90.0328 71° East 460 529 31,000  Level Kansas City Center
09:47PM 38.0775 -89.8794 72° East 460 529 31,000  Level Kansas City Center
09:48PM 38.1178 -89.7225 72° East 461 531 31,000  Level Kansas City Center
09:49PM 38.1597 -89.5603 72° East 461 531 31,000  Level Kansas City Center
09:50PM 38.1986 -89.4075 72° East 458 527 31,000  Level Kansas City Center
09:51PM 38.2400 -89.2431 72° East 457 526 31,000  Level Kansas City Center
09:52PM 38.2783 -89.0897 72° East 458 527 31,000  Level Kansas City Center
09:53PM 38.3117 -88.9564 72° East 458 527 31,000  Level Kansas City Center
09:54PM 38.3575 -88.7700 73° East 458 527 31,000  Level Kansas City Center
09:55PM 38.3936 -88.6231 73° East 462 532 31,000  Level Kansas City Center
09:56PM 38.4317 -88.4653 73° East 462 532 31,000  Level Kansas City Center
09:57PM 38.4714 -88.3092 72° East 462 532 31,000  Level Kansas City Center
09:58PM 38.5097 -88.1508 73° East 463 533 31,000  Level Kansas City Center
09:59PM 38.5419 -87.9861 76° East 472 543 31,000  Level Kansas City Center
10:00PM 38.5667 -87.8203 79° East 473 544 31,000  Level Kansas City Center
10:01PM 38.5989 -87.6208 78° East 476 548 31,000  Level Indianapolis Center
10:02PM 38.6269 -87.4519 78° East 480 552 31,000  Level Indianapolis Center
10:03PM 38.6536 -87.2842 78° East 477 549 31,000  Level Indianapolis Center
10:04PM 38.6808 -87.1164 78° East 476 548 31,000  Level Indianapolis Center
10:05PM 38.7072 -86.9481 79° East 475 547 31,000  Level Indianapolis Center
10:06PM 38.7333 -86.7811 79° East 474 545 31,000  Level Indianapolis Center
10:07PM 38.7583 -86.6158 79° East 469 540 31,000  Level Indianapolis Center
10:08PM 38.7906 -86.4161 78° East 473 544 31,000  Level Indianapolis Center
10:09PM 38.8144 -86.2531 79° East 466 536 31,000  Level Indianapolis Center
10:10PM 38.8389 -86.0906 79° East 462 532 31,000  Level Indianapolis Center
10:11PM 38.8633 -85.9303 79° East 457 526 31,000  Level Indianapolis Center
10:12PM 38.8883 -85.7586 79° East 459 528 31,000  Level Indianapolis Center
10:13PM 38.9117 -85.5986 79° East 460 529 31,000  Level Indianapolis Center
10:15PM 38.9344 -85.4375 80° East 462 532 31,000  Level Indianapolis Center
10:16PM 38.9572 -85.2769 80° East 462 532 31,000  Level Indianapolis Center
10:17PM 38.9794 -85.1158 80° East 461 531 31,000  Level Indianapolis Center
10:18PM 39.0025 -84.9561 79° East 458 527 31,000  Level Indianapolis Center
10:19PM 39.0275 -84.7761 80° East 464 534 31,000  Level Indianapolis Center
10:20PM 39.0500 -84.6106 80° East 466 536 31,000  Level Indianapolis Center
10:21PM 39.0717 -84.4469 80° East 462 532 31,000  Level Indianapolis Center
10:22PM 39.0936 -84.2839 80° East 461 531 31,000  Level Indianapolis Center
10:23PM 39.1156 -84.1203 80° East 460 529 31,000  Level Indianapolis Center
10:24PM 39.1364 -83.9547 81° East 464 534 31,000  Level Indianapolis Center
10:25PM 39.1575 -83.7917 80° East 461 531 31,000  Level Indianapolis Center
10:26PM 39.1817 -83.5981 81° East 466 536 31,000  Level Indianapolis Center
10:27PM 39.2022 -83.4319 81° East 468 539 31,000  Level Indianapolis Center
10:28PM 39.2236 -83.2633 81° East 476 548 31,000  Level Indianapolis Center
10:29PM 39.2442 -83.0956 81° East 473 544 31,000  Level Indianapolis Center
10:30PM 39.2636 -82.9333 81° East 460 529 31,000  Level Indianapolis Center
10:31PM 39.2839 -82.7692 81° East 460 529 31,000  Level Indianapolis Center
10:32PM 39.3033 -82.6078 81° East 455 524 31,000  Level Indianapolis Center
10:33PM 39.3217 -82.4483 81° East 457 526 31,000  Level Indianapolis Center
10:34PM 39.3406 -82.2850 81° East 459 528 31,000  Level Indianapolis Center
10:35PM 39.4092 -82.1497 57° Northeast 459 528 31,000  Level Indianapolis Center
10:36PM 39.5272 -82.1017 17° North 455 524 31,000  Level Indianapolis Center
10:37PM 39.6772 -82.1039 359° North 449 517 31,000  Level Indianapolis Center
10:38PM 39.7647 -81.9906 45° Northeast 447 514 31,000  Level Indianapolis Center
10:39PM 39.8000 -81.8328 74° East 452 520 31,000  Level Indianapolis Center
10:40PM 39.8358 -81.6689 74° East 465 535 31,000  Level Indianapolis Center
10:41PM 39.8708 -81.5092 74° East 460 529 31,000  Level Indianapolis Center
10:42PM 39.9275 -81.3575 64° Northeast 477 549 31,000  Level Indianapolis Center
10:43PM 39.9822 -81.2047 65° Northeast 483 556 31,000  Level Indianapolis Center
10:44PM 39.9383 -81.0575 111° Southeast 445 512 31,000  Level Indianapolis Center
10:45PM 39.8356 -80.9914 154° Southeast 415 478 31,000  Level Indianapolis Center
10:46PM 39.7311 -80.9322 156° South 408 470 31,000  Level Indianapolis Center
10:47PM 39.6286 -80.8742 156° South 401 461 31,000  Level Indianapolis Center
10:48PM 39.5050 -80.8033 156° South 402 463 31,000  Level Indianapolis Center
10:49PM 39.4200 -80.7106 140° Southeast 418 481 31,000  Level Indianapolis Center
10:50PM 39.4222 -80.5481 89° East 464 534 31,000 -420 Level Indianapolis Center
10:52PM 39.5814 -80.3783 39° Northeast 410 472 30,000 -720 Descending Cleveland Center
10:53PM 39.7061 -80.2889 29° Northeast 459 528 29,200 -540 Descending Cleveland Center
10:54PM 39.8267 -80.1992 30° Northeast 474 545 29,000 -120 Descending Cleveland Center
10:55PM 39.9242 -80.0769 44° Northeast 488 562 29,000  Level Cleveland Center
10:57PM 39.8753 -79.7525 101° East 417 480 29,000 -480 Level Washington Center
10:58PM 39.8244 -79.5956 113° Southeast 441 507 27,700 -1,260 Descending Washington Center
10:59PM 39.7753 -79.4389 112° Southeast 453 521 26,500 -1,140 Descending Washington Center
11:00PM 39.7278 -79.2878 112° Southeast 458 527 25,500 -780 Descending Washington Center
11:01PM 39.6781 -79.1397 114° Southeast 458 527 25,000 -300 Descending Washington Center
11:02PM 39.6389 -78.9842 108° East 453 521 25,000 -660 Level Washington Center
11:03PM 39.6000 -78.8072 106° East 458 527 23,700 -1,860 Descending Washington Center
11:04PM 39.5647 -78.6442 106° East 458 527 21,400 -2,400 Descending Washington Center
11:05PM 39.5289 -78.4919 107° East 458 527 19,000 -2,220 Descending Washington Center
11:06PM 39.4967 -78.3456 106° East 453 521 17,000 -1,980 Descending Washington Center
11:07PM 39.4644 -78.2044 106° East 422 486 15,200 -1,020 Descending Washington Center
11:08PM 39.4361 -78.0692 105° East 402 463 15,000 -480 Descending Washington Center
11:09PM 39.4203 -77.9261 98° East 402 463 14,300 -1,020 Descending Washington Center
11:10PM 39.4292 -77.7786 85° East 396 456 13,000 -1,020 Descending Washington Center
11:11PM 39.4358 -77.6392 86° East 396 456 12,300 -840 Descending Washington Center
11:12PM 39.4403 -77.4967 88° East 396 456 11,400 -660 Descending Washington Center
11:13PM 39.4464 -77.3600 87° East 396 456 11,000 -300 Descending Washington Center
11:13PM 39.4500 -77.3000 86° East 380 437 11,000  Level Potomac TRACON
11:14PM 39.4833 -77.1500 74° East 375 432 11,000  Level Potomac TRACON
11:15PM 39.4875 -77.1028 83° East 371 427 11,000 -1,080 Level Washington Center
11:16PM 39.5033 -76.9875 80° East 346 398 9,500 -1,560 Descending Washington Center
11:17PM 39.5167 -76.8167 84° East 310 357 7,200 -1,560 Descending Potomac TRACON
11:18PM 39.5000 -76.7000 100° East 298 343 5,500 -1,080 Descending Potomac TRACON
11:19PM 39.4500 -76.6167 128° Southeast 287 330 5,000 -780 Descending Potomac TRACON
11:20PM 39.4000 -76.5500 134° Southeast 284 327 4,000 -540 Descending Potomac TRACON
11:21PM 39.3500 -76.4833 134° Southeast 279 321 4,000  Level Potomac TRACON
11:22PM 39.2833 -76.4167 142° Southeast 274 315 4,000  Level Potomac TRACON
11:23PM 39.2167 -76.4000 169° South 246 283 4,000  Level Potomac TRACON
11:24PM 39.1500 -76.3667 159° South 225 259 4,000  Level Potomac TRACON
11:25PM 39.1000 -76.3667 180° South 222 255 4,000 -480 Level Potomac TRACON
11:26PM 39.0833 -76.4333 252° West 205 236 3,100 -540 Descending Potomac TRACON
11:27PM 39.0667 -76.4833 247° West 181 208 3,000 -600 Descending Potomac TRACON
11:28PM 39.0667 -76.5500 270° West 149 171 2,000 -960 Descending Potomac TRACON